Time;durP1;ratioP1;P1;durP2;ratioP2;P2;SDS_P1;SDS_P2;PMS_P1;PMS_P2;Temp;Humidity;BMP_temperature;BMP_pressure;BME280_temperature;BME280_humidity;BME280_pressure;Samples;Min_cycle;Max_cycle;Signal;HPM_P1;HPM_P2
2021/09/29 00:02:15;;;;;;;4.10;3.78;;;18.50;99.90;;;;;;4999486;28;20029;-77
2021/09/29 00:04:41;;;;;;;3.67;3.38;;;18.50;99.90;;;;;;5001949;28;20113;-77
2021/09/29 00:07:06;;;;;;;4.55;4.15;;;18.50;99.90;;;;;;5000335;28;20101;-77
2021/09/29 00:09:32;;;;;;;3.50;3.30;;;18.50;99.90;;;;;;5002116;28;20017;-77
2021/09/29 00:11:59;;;;;;;4.22;3.83;;;18.40;99.90;;;;;;5000871;28;20014;-77
2021/09/29 00:14:25;;;;;;;4.03;3.42;;;18.40;99.90;;;;;;5017399;28;20050;-77
2021/09/29 00:16:52;;;;;;;3.65;3.22;;;18.40;99.90;;;;;;4994735;28;20045;-77
2021/09/29 00:19:17;;;;;;;5.03;3.65;;;18.30;99.90;;;;;;4991393;28;20033;-77
2021/09/29 00:21:43;;;;;;;4.00;3.45;;;18.30;99.90;;;;;;4991043;28;20026;-77
2021/09/29 00:24:09;;;;;;;6.03;4.32;;;18.40;99.90;;;;;;4990901;28;20027;-77
2021/09/29 00:26:35;;;;;;;4.15;3.75;;;18.30;99.90;;;;;;4991748;28;20037;-77
2021/09/29 00:29:00;;;;;;;3.95;3.63;;;18.40;99.90;;;;;;4994087;28;20145;-77
2021/09/29 00:33:59;;;;;;;4.10;3.65;;;18.40;99.90;;;;;;5002265;28;20483;-77
2021/09/29 00:36:26;;;;;;;3.90;3.60;;;18.40;99.90;;;;;;5015009;28;20068;-77
2021/09/29 00:38:52;;;;;;;4.20;3.83;;;18.40;99.90;;;;;;5014837;28;20022;-77
2021/09/29 00:41:18;;;;;;;4.28;3.47;;;18.40;99.90;;;;;;5030084;28;20045;-77
2021/09/29 00:43:44;;;;;;;5.55;4.18;;;18.30;99.90;;;;;;5013480;28;20479;-77
2021/09/29 00:46:09;;;;;;;4.78;4.25;;;18.30;99.90;;;;;;5013355;28;20029;-77
2021/09/29 00:48:35;;;;;;;3.40;3.10;;;18.30;99.90;;;;;;5014588;28;20026;-77
2021/09/29 00:51:01;;;;;;;8.25;4.05;;;18.20;99.90;;;;;;5013352;28;20049;-77
2021/09/29 00:53:27;;;;;;;7.00;3.40;;;18.20;99.90;;;;;;5013201;28;20029;-77
2021/09/29 00:55:53;;;;;;;4.38;3.97;;;18.10;99.90;;;;;;5013230;28;20492;-77
2021/09/29 00:58:18;;;;;;;4.90;3.97;;;18.10;99.90;;;;;;5014534;28;20029;-77
2021/09/29 01:00:44;;;;;;;5.97;3.50;;;18.10;99.90;;;;;;5014300;28;20058;-77
2021/09/29 01:03:10;;;;;;;4.55;3.22;;;18.10;99.90;;;;;;5014314;28;20026;-77
2021/09/29 01:05:40;;;;;;;6.80;3.90;;;18.10;99.90;;;;;;5013028;28;20029;-77
2021/09/29 01:08:14;;;;;;;10.05;4.47;;;18.10;99.90;;;;;;5014275;28;20040;-77
2021/09/29 01:10:48;;;;;;;4.00;3.60;;;18.10;99.90;;;;;;5029301;28;20084;-77
2021/09/29 01:13:29;;;;;;;4.22;3.38;;;18.10;99.90;;;;;;5014272;28;20395;-77
2021/09/29 01:15:58;;;;;;;6.90;4.07;;;18.10;99.90;;;;;;5012936;28;20104;-77
2021/09/29 01:18:27;;;;;;;4.00;3.28;;;18.10;99.90;;;;;;5012893;28;20049;-77
2021/09/29 01:21:06;;;;;;;4.68;3.67;;;18.10;99.90;;;;;;5025628;28;20431;-77
2021/09/29 01:23:47;;;;;;;4.00;3.63;;;18.10;99.90;;;;;;4994404;28;20096;-77
2021/09/29 01:26:21;;;;;;;3.63;3.33;;;18.10;99.90;;;;;;4993157;28;20508;-77
2021/09/29 01:28:55;;;;;;;4.47;3.45;;;18.10;99.90;;;;;;4994471;28;20547;-77
2021/09/29 01:31:22;;;;;;;5.72;3.38;;;18.10;99.90;;;;;;4994316;28;20037;-77
2021/09/29 01:33:49;;;;;;;3.67;3.33;;;18.10;99.90;;;;;;5000704;28;20054;-77
2021/09/29 01:36:18;;;;;;;3.90;3.60;;;18.20;99.90;;;;;;5013818;28;20714;-77
2021/09/29 01:38:48;;;;;;;3.60;3.30;;;18.20;99.90;;;;;;5013507;28;20032;-77
2021/09/29 01:41:14;;;;;;;3.78;3.47;;;18.20;99.90;;;;;;5012474;28;20138;-77
2021/09/29 01:43:39;;;;;;;4.40;3.70;;;18.20;99.90;;;;;;5013598;28;20046;-77
2021/09/29 01:46:06;;;;;;;3.72;3.40;;;18.30;99.90;;;;;;5013654;28;20399;-77
2021/09/29 01:48:47;;;;;;;3.70;3.40;;;18.20;99.90;;;;;;5028708;28;20472;-77
2021/09/29 01:51:14;;;;;;;5.50;3.60;;;18.20;99.90;;;;;;5013488;28;20379;-77
2021/09/29 01:53:41;;;;;;;4.00;3.28;;;18.20;99.90;;;;;;5012177;28;20025;-77
2021/09/29 01:56:06;;;;;;;4.43;3.05;;;18.20;99.90;;;;;;5013475;28;20598;-77
2021/09/29 01:58:33;;;;;;;3.97;3.63;;;18.20;99.90;;;;;;5013427;28;20030;-77
2021/09/29 02:01:00;;;;;;;4.35;3.78;;;18.20;99.90;;;;;;5013368;28;20170;-77
2021/09/29 02:03:26;;;;;;;3.63;3.20;;;18.20;99.90;;;;;;5013149;28;20033;-77
2021/09/29 02:05:52;;;;;;;4.22;3.13;;;18.20;99.90;;;;;;5013374;28;20037;-77
2021/09/29 02:08:18;;;;;;;3.45;3.10;;;18.20;99.90;;;;;;5013132;28;20492;-77
2021/09/29 02:10:44;;;;;;;3.85;3.50;;;18.20;99.90;;;;;;5013174;28;20022;-77
2021/09/29 02:13:10;;;;;;;3.58;3.00;;;18.20;99.90;;;;;;5013094;28;20072;-77
2021/09/29 02:15:36;;;;;;;4.10;3.35;;;18.20;99.90;;;;;;5012932;28;20041;-77
2021/09/29 02:18:02;;;;;;;3.90;3.33;;;18.10;99.90;;;;;;5012960;28;20037;-77
2021/09/29 02:20:28;;;;;;;6.05;3.25;;;18.10;99.90;;;;;;5013005;28;20026;-77
2021/09/29 02:22:54;;;;;;;3.20;2.90;;;18.10;99.90;;;;;;5012373;28;20037;-77
2021/09/29 02:25:20;;;;;;;5.07;3.00;;;18.10;99.90;;;;;;5012911;28;20025;-77
2021/09/29 02:27:46;;;;;;;3.55;2.95;;;18.10;99.90;;;;;;5027978;28;20137;-77
2021/09/29 02:30:12;;;;;;;3.58;3.13;;;18.10;99.90;;;;;;5012870;28;20496;-77
2021/09/29 02:32:39;;;;;;;4.38;3.60;;;18.10;99.90;;;;;;5027771;28;20026;-77
2021/09/29 02:35:08;;;;;;;4.55;3.30;;;18.10;99.90;;;;;;5012639;28;20053;-77
2021/09/29 02:37:35;;;;;;;3.30;3.10;;;18.10;99.90;;;;;;5012685;28;20026;-77
2021/09/29 02:40:00;;;;;;;3.92;3.20;;;18.10;99.90;;;;;;5012656;28;20438;-77
2021/09/29 02:42:26;;;;;;;3.47;3.17;;;18.10;99.90;;;;;;5011271;28;20034;-77
2021/09/29 02:44:52;;;;;;;3.10;2.90;;;18.10;99.90;;;;;;5011338;28;20053;-77
2021/09/29 02:47:18;;;;;;;3.15;2.95;;;18.10;99.90;;;;;;5012335;28;20021;-77
2021/09/29 02:49:43;;;;;;;3.50;3.20;;;18.10;99.90;;;;;;5012526;28;20026;-77
2021/09/29 02:52:09;;;;;;;4.10;3.33;;;18.10;99.90;;;;;;5026993;28;20428;-77
2021/09/29 02:54:35;;;;;;;3.10;2.90;;;18.10;99.90;;;;;;5011151;28;20030;-77
2021/09/29 02:57:01;;;;;;;6.03;3.33;;;18.10;99.90;;;;;;5012417;28;20026;-77
2021/09/29 02:59:26;;;;;;;3.17;2.88;;;18.10;99.90;;;;;;5012295;28;20034;-77
2021/09/29 03:01:52;;;;;;;3.85;3.53;;;18.10;99.90;;;;;;5012283;28;20021;-77
2021/09/29 03:04:18;;;;;;;4.22;2.83;;;18.10;99.90;;;;;;5012051;28;20117;-77
2021/09/29 03:06:43;;;;;;;3.42;2.95;;;18.10;99.90;;;;;;5010882;28;20053;-77
2021/09/29 03:09:09;;;;;;;4.95;3.03;;;18.10;99.90;;;;;;5010979;28;20024;-77
2021/09/29 03:11:35;;;;;;;6.30;3.40;;;18.10;99.90;;;;;;5010060;28;20476;-77
2021/09/29 03:14:00;;;;;;;3.72;3.45;;;18.10;99.90;;;;;;4992324;28;20447;-77
2021/09/29 03:16:26;;;;;;;4.63;2.90;;;18.10;99.90;;;;;;4992379;28;20560;-77
2021/09/29 03:18:54;;;;;;;3.70;3.40;;;18.10;99.90;;;;;;4992365;28;20025;-77
2021/09/29 03:21:20;;;;;;;4.55;3.00;;;18.20;99.90;;;;;;4992394;28;20042;-77
2021/09/29 03:23:46;;;;;;;4.90;3.22;;;18.20;99.90;;;;;;4991117;28;20484;-77
2021/09/29 03:26:11;;;;;;;4.50;3.17;;;18.20;99.90;;;;;;4992539;28;20361;-76
2021/09/29 03:28:37;;;;;;;4.32;2.88;;;18.20;99.90;;;;;;4992334;28;20028;-77
2021/09/29 03:31:03;;;;;;;3.50;3.20;;;18.20;99.90;;;;;;4992403;28;20034;-77
2021/09/29 03:33:29;;;;;;;3.17;2.88;;;18.20;99.90;;;;;;4996390;28;20022;-77
2021/09/29 03:35:54;;;;;;;3.70;3.20;;;18.20;99.90;;;;;;5027203;28;20128;-77
2021/09/29 03:38:20;;;;;;;2.78;2.58;;;18.20;99.90;;;;;;5011967;28;20034;-77
2021/09/29 03:40:46;;;;;;;2.88;2.65;;;18.20;99.90;;;;;;5011808;28;20041;-77
2021/09/29 03:43:12;;;;;;;3.03;2.83;;;18.10;99.90;;;;;;5011610;28;20022;-77
2021/09/29 03:45:37;;;;;;;4.68;2.95;;;18.10;99.90;;;;;;5011752;28;20087;-77
2021/09/29 03:48:03;;;;;;;3.75;3.03;;;18.10;99.90;;;;;;5027070;28;20025;-77
2021/09/29 03:50:29;;;;;;;3.15;2.85;;;18.10;99.90;;;;;;5012735;28;20109;-77
2021/09/29 03:52:55;;;;;;;3.28;2.92;;;18.10;99.90;;;;;;5012753;28;20105;-77
2021/09/29 03:55:22;;;;;;;2.70;2.50;;;18.10;99.90;;;;;;5012856;28;20076;-77
2021/09/29 03:57:48;;;;;;;2.67;2.47;;;18.20;99.90;;;;;;5027928;28;20542;-77
2021/09/29 04:00:16;;;;;;;4.00;2.70;;;18.20;99.90;;;;;;5012585;28;20100;-77
2021/09/29 04:02:42;;;;;;;7.60;2.90;;;18.10;99.90;;;;;;5014666;28;20431;-77
2021/09/29 04:05:09;;;;;;;3.22;2.65;;;18.10;99.90;;;;;;5016568;28;20026;-77
2021/09/29 04:07:34;;;;;;;4.53;2.83;;;18.00;99.90;;;;;;5015288;28;20076;-77
2021/09/29 04:10:00;;;;;;;2.95;2.65;;;18.00;99.90;;;;;;5016160;28;20026;-77
2021/09/29 04:12:26;;;;;;;13.05;3.35;;;17.90;99.90;;;;;;5015564;28;20438;-77
2021/09/29 04:14:52;;;;;;;3.38;3.13;;;17.90;99.90;;;;;;5015534;28;20038;-77
2021/09/29 04:17:19;;;;;;;3.30;3.00;;;17.90;99.90;;;;;;5015209;28;20037;-77
2021/09/29 04:19:44;;;;;;;3.05;2.85;;;18.00;99.90;;;;;;5015555;28;20072;-77
2021/09/29 04:22:11;;;;;;;2.92;2.35;;;18.10;99.90;;;;;;5015540;28;20050;-77
2021/09/29 04:24:37;;;;;;;3.03;2.83;;;18.10;99.90;;;;;;5015347;28;20040;-77
2021/09/29 04:27:04;;;;;;;3.00;2.65;;;18.10;99.90;;;;;;5015286;28;20117;-76
2021/09/29 04:29:30;;;;;;;2.83;2.63;;;18.10;99.90;;;;;;5015490;28;20541;-77
2021/09/29 04:31:56;;;;;;;3.08;2.88;;;18.20;99.90;;;;;;5015306;28;20017;-77
2021/09/29 04:34:22;;;;;;;3.53;2.33;;;18.20;99.90;;;;;;5030384;28;20065;-76
2021/09/29 04:36:48;;;;;;;4.50;2.90;;;18.20;99.90;;;;;;5015230;28;20526;-77
2021/09/29 04:39:15;;;;;;;2.55;2.30;;;18.30;99.90;;;;;;5015158;28;20022;-77
2021/09/29 04:41:41;;;;;;;2.90;2.70;;;18.30;99.90;;;;;;5013736;28;20121;-77
2021/09/29 04:44:07;;;;;;;2.60;2.40;;;18.30;99.90;;;;;;5014918;28;20030;-77
2021/09/29 04:46:33;;;;;;;4.70;2.67;;;18.30;99.90;;;;;;5014865;28;20087;-77
2021/09/29 04:48:59;;;;;;;6.28;2.72;;;18.30;99.90;;;;;;5014891;28;20496;-77
2021/09/29 04:51:25;;;;;;;2.88;2.67;;;18.30;99.90;;;;;;5014613;28;20476;-77
2021/09/29 04:53:51;;;;;;;2.58;2.38;;;18.30;99.90;;;;;;5014240;28;20022;-77
2021/09/29 04:56:17;;;;;;;3.10;2.80;;;18.30;99.90;;;;;;5011344;28;20026;-75
2021/09/29 04:58:43;;;;;;;2.60;2.40;;;18.20;99.90;;;;;;5003869;28;20121;-75
2021/09/29 05:01:11;;;;;;;4.40;2.45;;;18.30;99.90;;;;;;5012062;28;20033;-75
2021/09/29 05:03:36;;;;;;;3.08;2.70;;;18.20;99.90;;;;;;5013482;28;20022;-75
2021/09/29 05:06:02;;;;;;;2.83;2.63;;;18.30;99.90;;;;;;5014316;28;20036;-74
2021/09/29 05:08:33;;;;;;;3.15;2.85;;;18.30;99.90;;;;;;5014224;28;20030;-75
2021/09/29 05:11:04;;;;;;;5.25;2.92;;;18.20;99.90;;;;;;5013209;28;20535;-74
2021/09/29 05:13:32;;;;;;;3.20;2.90;;;18.30;99.90;;;;;;5012356;28;20504;-75
2021/09/29 05:15:59;;;;;;;2.78;2.33;;;18.30;99.90;;;;;;4998153;28;20034;-75
2021/09/29 05:18:25;;;;;;;2.83;2.63;;;18.30;99.90;;;;;;5012850;28;20431;-75
2021/09/29 05:20:52;;;;;;;2.70;2.45;;;18.30;99.90;;;;;;5014035;28;20026;-75
2021/09/29 05:23:18;;;;;;;10.30;2.75;;;18.30;99.90;;;;;;5012709;28;20294;-75
2021/09/29 05:25:43;;;;;;;2.83;2.63;;;18.30;99.90;;;;;;5014027;28;20095;-75
2021/09/29 05:28:13;;;;;;;2.42;2.22;;;18.40;99.90;;;;;;5014062;28;20495;-75
2021/09/29 05:30:39;;;;;;;2.97;2.70;;;18.40;99.90;;;;;;5013352;28;20029;-75
2021/09/29 05:33:05;;;;;;;3.75;2.80;;;18.50;99.90;;;;;;5013503;28;20033;-75
2021/09/29 05:35:30;;;;;;;3.58;2.80;;;18.50;99.90;;;;;;5013889;28;20018;-75
2021/09/29 05:37:56;;;;;;;2.85;2.65;;;18.50;99.90;;;;;;5013670;28;20479;-74
2021/09/29 05:40:22;;;;;;;2.72;2.40;;;18.50;99.90;;;;;;5014075;28;20036;-75
2021/09/29 05:42:47;;;;;;;2.50;2.30;;;18.60;99.90;;;;;;5014612;28;20026;-75
2021/09/29 05:45:13;;;;;;;2.63;2.42;;;18.60;99.90;;;;;;5014724;28;20026;-75
2021/09/29 05:47:39;;;;;;;3.70;2.88;;;18.60;99.90;;;;;;5014472;28;20057;-75
2021/09/29 05:50:06;;;;;;;3.13;2.50;;;18.60;99.90;;;;;;5014683;28;20029;-75
2021/09/29 05:52:32;;;;;;;2.88;2.33;;;18.60;99.90;;;;;;5029665;28;20022;-75
2021/09/29 05:54:58;;;;;;;5.32;2.38;;;18.60;99.90;;;;;;5014490;28;20026;-74
2021/09/29 05:57:24;;;;;;;3.05;2.60;;;18.50;99.90;;;;;;5014694;28;20025;-75
2021/09/29 05:59:50;;;;;;;2.80;2.60;;;18.50;99.90;;;;;;5013192;28;20113;-75
2021/09/29 06:02:17;;;;;;;2.67;2.35;;;18.50;99.90;;;;;;5013872;28;20030;-75
2021/09/29 06:04:42;;;;;;;4.13;2.65;;;18.50;99.90;;;;;;5012020;28;20293;-74
2021/09/29 06:07:11;;;;;;;2.53;2.33;;;18.50;99.90;;;;;;5011809;28;20037;-74
2021/09/29 06:09:40;;;;;;;2.88;2.67;;;18.60;99.90;;;;;;5028237;28;20022;-75
2021/09/29 06:12:07;;;;;;;2.92;2.72;;;18.60;99.90;;;;;;5014165;28;20026;-75
2021/09/29 06:14:34;;;;;;;4.75;2.40;;;18.70;99.90;;;;;;5012802;28;20403;-75
2021/09/29 06:17:20;;;;;;;2.72;2.53;;;18.70;99.90;;;;;;5014359;28;20025;-74
2021/09/29 06:19:46;;;;;;;6.00;2.50;;;18.70;99.90;;;;;;5013862;28;20401;-75
2021/09/29 06:22:12;;;;;;;2.78;2.58;;;18.80;99.90;;;;;;5013938;28;20044;-75
2021/09/29 06:24:38;;;;;;;2.83;2.63;;;18.80;99.90;;;;;;5013906;28;20379;-75
2021/09/29 06:27:04;;;;;;;3.38;2.72;;;18.80;99.90;;;;;;5028291;28;20026;-75
2021/09/29 06:29:30;;;;;;;6.32;2.70;;;18.90;99.90;;;;;;5013964;28;20018;-74
2021/09/29 06:32:17;;;;;;;2.75;2.53;;;18.90;99.90;;;;;;5028709;28;20373;-75
2021/09/29 06:34:43;;;;;;;4.70;2.67;;;19.00;99.90;;;;;;5013477;28;20383;-75
2021/09/29 06:37:09;;;;;;;3.45;2.80;;;19.00;99.90;;;;;;5013624;28;20034;-75
2021/09/29 06:39:35;;;;;;;2.75;2.38;;;19.00;99.90;;;;;;5013540;28;20037;-75
2021/09/29 06:42:00;;;;;;;2.30;2.10;;;19.00;99.90;;;;;;5012841;28;20109;-74
2021/09/29 06:44:28;;;;;;;3.22;2.97;;;19.10;99.90;;;;;;5012549;28;20026;-74
2021/09/29 06:46:54;;;;;;;3.08;2.78;;;19.10;99.90;;;;;;5012438;28;20069;-75
2021/09/29 06:49:20;;;;;;;3.00;2.58;;;19.20;99.90;;;;;;5012833;28;20042;-74
2021/09/29 06:51:46;;;;;;;2.40;2.30;;;19.20;99.90;;;;;;5010791;28;20030;-74
2021/09/29 06:54:11;;;;;;;2.72;2.55;;;19.30;99.90;;;;;;5012395;28;20026;-74
2021/09/29 06:56:37;;;;;;;2.60;2.40;;;19.30;99.90;;;;;;5012423;28;20018;-74
2021/09/29 06:59:03;;;;;;;2.97;2.05;;;19.40;99.90;;;;;;5027482;28;20069;-75
2021/09/29 07:01:29;;;;;;;2.38;2.28;;;19.50;99.90;;;;;;5012161;28;20407;-74
2021/09/29 07:03:54;;;;;;;2.47;2.28;;;19.60;99.90;;;;;;5010846;28;20014;-75
2021/09/29 07:06:20;;;;;;;3.95;2.33;;;19.60;99.90;;;;;;5012155;28;20022;-75
2021/09/29 07:08:49;;;;;;;2.85;2.60;;;19.60;99.90;;;;;;5012132;28;20037;-75
2021/09/29 07:11:18;;;;;;;4.90;2.30;;;19.70;99.90;;;;;;5010874;28;20084;-74
2021/09/29 07:13:45;;;;;;;2.33;2.22;;;19.70;99.90;;;;;;5008743;28;20036;-75
2021/09/29 07:16:12;;;;;;;3.03;2.60;;;19.70;99.90;;;;;;5012084;28;20037;-75
2021/09/29 07:18:39;;;;;;;3.25;2.33;;;19.80;99.90;;;;;;5012025;28;20033;-74
2021/09/29 07:21:05;;;;;;;3.30;2.30;;;19.80;99.90;;;;;;5012068;28;20026;-74
2021/09/29 07:23:30;;;;;;;3.00;2.35;;;19.80;99.90;;;;;;5010606;28;20387;-75
2021/09/29 07:25:56;;;;;;;3.08;2.42;;;19.90;99.90;;;;;;5011945;28;20038;-75
2021/09/29 07:28:22;;;;;;;4.30;2.83;;;19.90;99.90;;;;;;5010511;28;20022;-75
2021/09/29 07:30:48;;;;;;;3.35;2.80;;;20.00;99.90;;;;;;5011875;28;20057;-75
2021/09/29 07:33:15;;;;;;;2.38;2.17;;;20.10;99.90;;;;;;5011764;28;20018;-75
2021/09/29 07:35:43;;;;;;;2.90;2.72;;;20.10;99.90;;;;;;5011748;28;20029;-75
2021/09/29 07:38:11;;;;;;;2.60;2.40;;;20.10;99.90;;;;;;5011597;28;20483;-75
2021/09/29 07:40:37;;;;;;;2.65;2.45;;;20.20;99.90;;;;;;5011755;28;20033;-75
2021/09/29 07:43:04;;;;;;;2.15;2.05;;;20.20;99.90;;;;;;5011619;28;20470;-75
2021/09/29 07:45:30;;;;;;;4.50;2.40;;;20.20;99.90;;;;;;5010447;28;20499;-75
2021/09/29 07:47:57;;;;;;;3.25;2.63;;;20.20;99.90;;;;;;5011612;28;20026;-75
2021/09/29 07:50:23;;;;;;;2.65;2.45;;;20.20;99.90;;;;;;5011741;28;20025;-76
2021/09/29 07:52:49;;;;;;;2.63;2.45;;;20.30;99.90;;;;;;5011767;28;20076;-75
2021/09/29 07:55:16;;;;;;;2.63;2.28;;;20.30;99.90;;;;;;5011701;28;20151;-75
2021/09/29 07:57:43;;;;;;;3.90;2.50;;;20.40;99.90;;;;;;5011499;28;20079;-76
2021/09/29 08:00:11;;;;;;;2.13;2.03;;;20.40;99.90;;;;;;5011590;28;20026;-75
2021/09/29 08:02:37;;;;;;;2.67;2.47;;;20.50;99.90;;;;;;5011514;28;20022;-75
2021/09/29 08:05:04;;;;;;;2.30;2.20;;;20.50;99.90;;;;;;5011472;28;20030;-75
2021/09/29 08:07:30;;;;;;;3.30;3.00;;;20.60;99.90;;;;;;5011480;28;20022;-75
2021/09/29 08:09:57;;;;;;;2.40;2.20;;;20.70;99.90;;;;;;5011394;28;20109;-75
2021/09/29 08:12:23;;;;;;;2.60;2.40;;;20.80;99.90;;;;;;5010003;28;20292;-75
2021/09/29 08:14:49;;;;;;;3.92;2.30;;;20.90;99.90;;;;;;5011255;28;20046;-75
2021/09/29 08:17:15;;;;;;;3.38;2.42;;;21.00;99.90;;;;;;5011083;28;20033;-75
2021/09/29 08:19:41;;;;;;;2.30;2.15;;;21.10;99.90;;;;;;5026597;28;20034;-75
2021/09/29 08:22:09;;;;;;;2.80;2.60;;;21.20;99.90;;;;;;5011249;28;20080;-75
2021/09/29 08:25:01;;;;;;;2.40;2.30;;;21.30;99.90;;;;;;5011305;28;20029;-75
2021/09/29 08:32:43;;;;;;;3.92;2.92;;;21.30;99.90;;;;;;5011211;28;20096;-75
2021/09/29 08:35:30;;;;;;;2.95;2.65;;;21.30;99.70;;;;;;5026364;28;20022;-75
2021/09/29 08:40:25;;;;;;;4.53;2.50;;;21.40;99.70;;;;;;5011203;28;20153;-75
2021/09/29 08:51:24;;;;;;;2.95;2.75;;;21.70;99.60;;;;;;5013926;28;20076;-75
2021/09/29 09:16:06;;;;;;;3.85;2.17;;;22.40;98.40;;;;;;4994880;28;20092;-75
2021/09/29 09:18:32;;;;;;;3.92;2.22;;;22.60;97.20;;;;;;4994533;28;20023;-75
2021/09/29 09:21:06;;;;;;;4.20;2.78;;;22.50;97.90;;;;;;4993218;28;20160;-75
2021/09/29 09:23:37;;;;;;;3.28;2.33;;;22.60;98.00;;;;;;4994368;28;20050;-75
2021/09/29 09:26:27;;;;;;;3.20;2.90;;;22.50;98.30;;;;;;4994702;28;20496;-76
2021/09/29 09:29:07;;;;;;;4.50;2.55;;;22.50;98.40;;;;;;4989097;28;20348;-75
2021/09/29 09:31:34;;;;;;;4.57;3.03;;;22.50;98.10;;;;;;5009332;28;20474;-75
2021/09/29 09:34:05;;;;;;;2.88;2.67;;;22.50;98.00;;;;;;5002378;28;20072;-75
2021/09/29 09:36:35;;;;;;;8.68;2.60;;;22.60;98.70;;;;;;5012631;28;20045;-76
2021/09/29 09:39:06;;;;;;;3.80;2.90;;;22.50;99.30;;;;;;5013736;28;20018;-75
2021/09/29 09:41:31;;;;;;;2.78;2.55;;;22.60;98.50;;;;;;5013734;28;20391;-75
2021/09/29 09:44:00;;;;;;;3.90;3.15;;;22.60;98.90;;;;;;5012325;28;20026;-75
2021/09/29 09:46:26;;;;;;;4.68;2.65;;;22.50;98.10;;;;;;5013792;28;20515;-76
2021/09/29 09:49:05;;;;;;;3.45;3.15;;;22.50;97.90;;;;;;5013554;28;20364;-75
2021/09/29 09:51:33;;;;;;;2.83;2.63;;;22.40;99.00;;;;;;5013527;28;20030;-75
2021/09/29 09:54:00;;;;;;;2.92;2.63;;;22.40;99.30;;;;;;5013630;28;20014;-76
2021/09/29 09:56:31;;;;;;;5.18;3.30;;;22.40;99.90;;;;;;5013452;28;20049;-76
2021/09/29 09:58:58;;;;;;;3.78;2.72;;;22.40;99.30;;;;;;5013341;28;20046;-75
2021/09/29 10:01:28;;;;;;;2.88;2.67;;;22.40;98.60;;;;;;5011887;28;20601;-76
2021/09/29 10:03:55;;;;;;;3.28;2.50;;;22.50;98.40;;;;;;5011924;28;20041;-77
2021/09/29 10:06:23;;;;;;;3.05;2.85;;;22.50;98.70;;;;;;5011912;28;20026;-77
2021/09/29 10:08:57;;;;;;;3.42;3.13;;;22.60;98.60;;;;;;5012585;28;20080;-77
2021/09/29 10:11:27;;;;;;;3.33;3.03;;;22.60;98.50;;;;;;5012839;28;20072;-77
2021/09/29 10:14:21;;;;;;;3.13;2.83;;;22.50;99.60;;;;;;5012511;28;20113;-77
2021/09/29 10:22:54;;;;;;;3.13;2.92;;;22.70;97.60;;;;;;5013089;28;20117;-77
2021/09/29 10:28:13;;;;;;;3.25;2.97;;;22.70;96.60;;;;;;5012786;28;20037;-77
2021/09/29 10:30:58;;;;;;;2.85;2.65;;;22.70;96.70;;;;;;5012908;28;20073;-77
2021/09/29 10:33:28;;;;;;;3.40;3.10;;;22.70;97.10;;;;;;5012745;28;20037;-77
2021/09/29 10:41:50;;;;;;;6.35;2.85;;;22.80;96.70;;;;;;5012828;28;20109;-77
2021/09/29 10:44:27;;;;;;;3.30;3.00;;;22.80;97.30;;;;;;5011326;28;20580;-77
2021/09/29 10:47:14;;;;;;;5.45;3.05;;;22.70;97.20;;;;;;5012502;28;20152;-77
2021/09/29 10:50:06;;;;;;;4.88;2.97;;;22.80;99.00;;;;;;5011223;28;20537;-77
2021/09/29 11:30:47;;;;;;;3.67;3.17;;;23.30;97.20;;;;;;5011586;28;20056;-77
2021/09/29 12:11:28;;;;;;;4.63;3.30;;;23.70;94.50;;;;;;5011305;28;20480;-77
2021/09/29 12:14:01;;;;;;;;;;;23.70;95.10;;;;;;5011622;28;20046;-77
2021/09/29 12:16:35;;;;;;;2.90;2.70;;;23.90;94.70;;;;;;5011548;28;20008;-77
2021/09/29 12:19:11;;;;;;;3.92;3.53;;;23.80;93.50;;;;;;5011400;28;20061;-77
2021/09/29 12:21:57;;;;;;;3.38;3.17;;;23.90;92.90;;;;;;5011327;28;20105;-77
2021/09/29 12:24:32;;;;;;;4.40;3.90;;;23.80;93.80;;;;;;5014348;28;20029;-77
2021/09/29 12:27:00;;;;;;;6.75;3.58;;;23.80;94.60;;;;;;5015054;28;20057;-77
2021/09/29 12:29:36;;;;;;;5.47;3.35;;;24.00;95.30;;;;;;5015040;28;20435;-77
2021/09/29 12:35:18;;;;;;;3.83;3.40;;;24.00;94.20;;;;;;5015163;28;20061;-77
2021/09/29 12:37:58;;;;;;;2.95;2.75;;;24.00;94.20;;;;;;5014927;28;20030;-77
2021/09/29 12:40:29;;;;;;;3.53;3.22;;;24.10;95.00;;;;;;5014887;28;20056;-77
2021/09/29 12:43:04;;;;;;;4.70;3.58;;;24.20;93.80;;;;;;5013390;28;20026;-77
2021/09/29 12:45:34;;;;;;;4.00;3.70;;;24.20;93.80;;;;;;5014757;28;20022;-77
2021/09/29 12:48:07;;;;;;;3.67;3.28;;;24.10;93.70;;;;;;5014746;28;20026;-77
2021/09/29 12:55:55;;;;;;;4.13;3.53;;;24.10;94.30;;;;;;5014618;28;20245;-77
2021/09/29 12:58:21;;;;;;;5.90;3.40;;;24.10;93.80;;;;;;5014582;28;20026;-77
2021/09/29 13:00:47;;;;;;;3.53;3.22;;;24.30;94.00;;;;;;5014573;28;20558;-77
2021/09/29 13:03:13;;;;;;;3.75;3.45;;;24.40;93.60;;;;;;5013080;28;20053;-77
2021/09/29 13:05:39;;;;;;;3.47;3.17;;;24.40;93.00;;;;;;5014421;28;20025;-77
2021/09/29 13:08:05;;;;;;;3.75;3.45;;;24.40;92.80;;;;;;5014255;28;20034;-77
2021/09/29 13:10:32;;;;;;;4.00;2.97;;;24.30;92.70;;;;;;5014241;28;20014;-77
2021/09/29 13:12:57;;;;;;;4.97;3.50;;;24.40;93.60;;;;;;5014319;28;20439;-77
2021/09/29 13:15:24;;;;;;;3.50;3.20;;;24.40;94.00;;;;;;5011799;28;20041;-77
2021/09/29 13:17:52;;;;;;;4.43;3.45;;;24.40;94.00;;;;;;4994668;28;20027;-77
2021/09/29 13:20:29;;;;;;;4.10;3.70;;;24.40;93.80;;;;;;4994556;28;20022;-77
2021/09/29 13:23:03;;;;;;;5.85;3.70;;;24.30;93.20;;;;;;4994500;28;20250;-77
2021/09/29 13:36:38;;;;;;;6.95;3.65;;;24.40;93.90;;;;;;5013700;28;20037;-77
2021/09/29 13:39:10;;;;;;;3.55;3.35;;;24.40;92.60;;;;;;5013795;28;20053;-77
2021/09/29 13:41:37;;;;;;;3.85;3.35;;;24.30;93.00;;;;;;5028850;28;20028;-77
2021/09/29 13:44:03;;;;;;;3.90;3.30;;;24.30;93.80;;;;;;5013742;28;20400;-77
2021/09/29 13:46:29;;;;;;;3.75;3.42;;;24.40;93.90;;;;;;5013807;28;20072;-77
2021/09/29 13:48:56;;;;;;;3.15;2.95;;;24.40;93.50;;;;;;5013464;28;20033;-77
2021/09/29 13:51:26;;;;;;;4.13;3.42;;;24.50;94.20;;;;;;5013462;28;20029;-77
2021/09/29 13:53:54;;;;;;;4.50;4.05;;;24.50;93.80;;;;;;5013334;28;20448;-77
2021/09/29 13:56:22;;;;;;;5.10;3.75;;;24.50;91.90;;;;;;5013446;28;20468;-77
2021/09/29 14:29:14;;;;;;;5.45;3.83;;;24.50;91.70;;;;;;5012720;28;20033;-77
2021/09/29 14:34:24;;;;;;;6.15;4.20;;;24.40;92.40;;;;;;5012691;28;20077;-77
2021/09/29 14:36:50;;;;;;;4.53;4.13;;;24.40;91.00;;;;;;5012851;28;20026;-77
2021/09/29 14:39:16;;;;;;;4.80;4.40;;;24.40;91.50;;;;;;5027945;28;20445;-77
2021/09/29 14:41:42;;;;;;;4.25;3.78;;;24.30;91.10;;;;;;5012578;28;20034;-77
2021/09/29 14:44:08;;;;;;;5.47;4.28;;;24.30;92.40;;;;;;5012572;28;20079;-77
2021/09/29 14:46:34;;;;;;;5.97;4.53;;;24.30;92.70;;;;;;5010500;28;20030;-77
2021/09/29 14:48:59;;;;;;;5.88;5.13;;;24.30;93.00;;;;;;5011053;28;20184;-77
2021/09/29 14:51:25;;;;;;;4.82;4.05;;;24.30;92.00;;;;;;5012414;28;20021;-77
2021/09/29 14:53:54;;;;;;;6.60;4.72;;;24.30;93.00;;;;;;5011149;28;20030;-77
2021/09/29 14:56:20;;;;;;;8.55;4.85;;;24.30;93.10;;;;;;5012272;28;20033;-77
2021/09/29 14:58:46;;;;;;;5.82;4.43;;;24.30;93.40;;;;;;5012405;28;20026;-77
2021/09/29 15:01:14;;;;;;;4.90;4.13;;;24.30;93.80;;;;;;5012349;28;20030;-77
2021/09/29 15:03:40;;;;;;;4.65;4.25;;;24.20;93.80;;;;;;5012185;28;20040;-77
2021/09/29 15:06:07;;;;;;;5.80;3.65;;;24.30;94.30;;;;;;5012173;28;20033;-77
2021/09/29 15:08:36;;;;;;;4.80;4.28;;;24.30;94.50;;;;;;5012081;28;20057;-77
2021/09/29 15:11:02;;;;;;;7.47;4.18;;;24.20;93.80;;;;;;5011914;28;20026;-77
2021/09/29 15:13:30;;;;;;;7.38;3.97;;;24.30;93.60;;;;;;5008994;28;20473;-77
2021/09/29 15:16:02;;;;;;;4.75;4.18;;;24.30;94.00;;;;;;4992512;28;20057;-77
2021/09/29 15:18:33;;;;;;;5.03;4.53;;;24.20;93.80;;;;;;4991137;28;20030;-77
2021/09/29 15:21:48;;;;;;;6.72;4.75;;;24.20;94.50;;;;;;4992351;28;20030;-77
2021/09/29 15:31:56;;;;;;;7.82;4.28;;;24.20;92.60;;;;;;4992195;28;20120;-77
2021/09/29 15:55:47;;;;;;;5.25;4.07;;;23.60;97.50;;;;;;5011609;28;20041;-77
2021/09/29 15:58:25;;;;;;;3.55;3.35;;;23.50;98.00;;;;;;5011883;28;20542;-77
2021/09/29 16:01:05;;;;;;;6.40;4.30;;;23.40;98.40;;;;;;5013843;28;20029;-77
2021/09/29 16:03:55;;;;;;;6.13;3.80;;;23.30;99.10;;;;;;5012243;28;20087;-77
2021/09/29 16:09:10;;;;;;;4.35;4.10;;;23.20;99.50;;;;;;5013407;28;20033;-77
2021/09/29 16:30:37;;;;;;;4.70;4.30;;;22.80;99.90;;;;;;5012167;28;20510;-76
2021/09/29 16:33:29;;;;;;;5.50;4.00;;;22.70;99.90;;;;;;5010650;28;20300;-76
2021/09/29 16:35:54;;;;;;;7.55;3.90;;;22.60;99.90;;;;;;5013461;28;20029;-76
2021/09/29 16:38:20;;;;;;;8.35;4.53;;;22.60;99.90;;;;;;5013767;28;20026;-76
2021/09/29 16:40:46;;;;;;;4.50;4.05;;;22.50;99.90;;;;;;5014482;28;20438;-77
2021/09/29 16:43:14;;;;;;;7.05;4.05;;;22.50;99.90;;;;;;5014659;28;20555;-77
2021/09/29 16:45:40;;;;;;;6.72;4.30;;;22.40;99.90;;;;;;5015080;28;20022;-77
2021/09/29 16:48:11;;;;;;;5.10;3.80;;;22.40;99.90;;;;;;5013595;28;20030;-77
2021/09/29 16:50:49;;;;;;;;;;;22.30;99.90;;;;;;5016343;28;20033;-77